createdAt,value
2023-02-22T00:00:44.388Z,68.24
2023-02-22T00:03:17.888Z,68.14
2023-02-22T00:05:54.003Z,68.05
2023-02-22T00:08:30.648Z,68.00
2023-02-22T00:11:05.276Z,67.82
2023-02-22T00:13:37.686Z,68.02
2023-02-22T00:16:13.284Z,68.21
2023-02-22T00:18:46.010Z,68.27
2023-02-22T00:21:19.176Z,68.11
2023-02-22T00:23:54.900Z,68.25
2023-02-22T00:26:28.095Z,68.42
2023-02-22T00:29:00.302Z,68.51
2023-02-22T00:31:32.199Z,68.67
2023-02-22T00:34:03.734Z,68.17
2023-02-22T00:36:36.195Z,68.26
2023-02-22T00:39:09.741Z,68.20
2023-02-22T00:41:41.306Z,68.09
2023-02-22T00:44:12.874Z,68.15
2023-02-22T00:46:45.409Z,68.46
2023-02-22T00:49:17.192Z,68.40
2023-02-22T00:51:49.989Z,68.50
2023-02-22T00:54:21.463Z,68.17
2023-02-22T00:56:53.549Z,68.19
2023-02-22T00:59:25.451Z,68.34
2023-02-22T01:01:57.505Z,68.55
2023-02-22T01:04:29.252Z,68.59
2023-02-22T01:07:02.754Z,68.42
2023-02-22T01:09:35.190Z,68.64
2023-02-22T01:12:08.363Z,68.87
2023-02-22T01:14:40.421Z,69.02
2023-02-22T01:17:12.668Z,68.98
2023-02-22T01:19:44.619Z,68.82
2023-02-22T01:22:16.313Z,69.19
2023-02-22T01:24:48.313Z,69.56
2023-02-22T01:27:20.676Z,69.51
2023-02-22T01:29:53.362Z,69.27
2023-02-22T01:32:24.954Z,69.08
2023-02-22T01:34:58.110Z,69.01
2023-02-22T01:37:29.681Z,69.03
2023-02-22T01:40:01.353Z,69.17
2023-02-22T01:42:33.112Z,69.49
2023-02-22T01:45:44.306Z,69.60
2023-02-22T01:48:22.661Z,69.79
2023-02-22T01:51:02.876Z,69.07
2023-02-22T01:53:39.003Z,69.36
2023-02-22T01:56:12.360Z,69.47
2023-02-22T01:58:48.172Z,69.44
2023-02-22T02:01:23.448Z,69.75
2023-02-22T02:03:58.478Z,69.59
2023-02-22T02:06:35.423Z,69.65
2023-02-22T02:09:13.937Z,69.85
2023-02-22T02:11:46.140Z,70.01
2023-02-22T02:14:18.494Z,70.07
2023-02-22T02:16:53.744Z,70.21
2023-02-22T02:19:34.975Z,70.40
2023-02-22T02:22:30.851Z,70.28
2023-02-22T02:25:47.399Z,69.92
2023-02-22T02:28:47.830Z,70.14
2023-02-22T02:32:10.445Z,70.30
2023-02-22T02:34:48.720Z,70.23
2023-02-22T02:37:37.085Z,70.11
2023-02-22T02:40:23.990Z,70.52
2023-02-22T02:43:06.514Z,69.98
2023-02-22T02:45:46.747Z,70.16
2023-02-22T02:48:22.787Z,70.73
2023-02-22T02:50:57.232Z,70.87
2023-02-22T02:53:35.543Z,70.65
2023-02-22T02:56:08.012Z,70.57
2023-02-22T02:58:49.445Z,70.49
2023-02-22T03:01:36.033Z,70.67
2023-02-22T03:04:24.756Z,70.45
2023-02-22T03:07:13.151Z,70.60
2023-02-22T03:10:00.655Z,71.10
2023-02-22T03:12:44.846Z,70.74
2023-02-22T03:15:29.945Z,70.90
2023-02-22T03:18:03.642Z,70.92
2023-02-22T03:20:45.750Z,70.42
2023-02-22T03:23:26.408Z,70.50
2023-02-22T03:26:04.785Z,71.09
2023-02-22T03:28:40.300Z,71.07
2023-02-22T03:31:17.752Z,70.69
2023-02-22T03:33:54.738Z,70.57
2023-02-22T03:36:30.105Z,71.03
2023-02-22T03:39:04.532Z,71.02
2023-02-22T03:41:40.081Z,71.68
2023-02-22T03:44:17.026Z,71.84
2023-02-22T03:46:52.360Z,72.04
2023-02-22T03:49:33.503Z,72.36
2023-02-22T03:52:06.372Z,71.76
2023-02-22T03:54:38.824Z,71.86
2023-02-22T03:57:16.739Z,71.83
2023-02-22T03:59:49.281Z,72.12
2023-02-22T04:02:21.109Z,72.25
2023-02-22T04:04:53.101Z,72.45
2023-02-22T04:07:25.228Z,72.62
2023-02-22T04:09:56.898Z,72.88
2023-02-22T04:12:29.867Z,72.76
2023-02-22T04:15:02.217Z,72.63
2023-02-22T04:17:33.762Z,72.92
2023-02-22T04:20:07.354Z,73.06
2023-02-22T04:22:39.746Z,73.06
2023-02-22T04:25:12.127Z,72.54
2023-02-22T04:27:49.394Z,72.05
2023-02-22T04:30:27.902Z,71.68
2023-02-22T04:33:05.463Z,71.78
2023-02-22T04:35:37.427Z,72.20
2023-02-22T04:38:09.583Z,72.50
2023-02-22T04:40:41.476Z,72.57
2023-02-22T04:43:13.382Z,72.11
2023-02-22T04:45:45.020Z,72.16
2023-02-22T04:48:17.256Z,72.37
2023-02-22T04:50:49.948Z,72.87
2023-02-22T04:53:21.585Z,73.09
2023-02-22T04:55:53.967Z,72.99
2023-02-22T04:58:25.781Z,72.83
2023-02-22T05:00:59.114Z,72.37
2023-02-22T05:03:31.103Z,72.03
2023-02-22T05:06:03.128Z,71.79
2023-02-22T05:08:35.246Z,71.91
2023-02-22T05:11:07.323Z,72.01
2023-02-22T05:13:39.720Z,72.30
2023-02-22T05:16:12.077Z,72.49
2023-02-22T05:18:44.824Z,72.55
2023-02-22T05:21:17.481Z,72.28
2023-02-22T05:23:49.465Z,72.15
2023-02-22T05:26:21.055Z,71.96
2023-02-22T05:28:52.651Z,71.81
2023-02-22T05:31:24.400Z,71.41
2023-02-22T05:33:56.013Z,71.43
2023-02-22T05:36:28.358Z,71.57
2023-02-22T05:38:59.850Z,71.80
2023-02-22T05:41:32.280Z,71.84
2023-02-22T05:44:04.570Z,71.80
2023-02-22T05:46:36.095Z,71.44
2023-02-22T05:49:07.758Z,71.46
2023-02-22T05:51:39.705Z,71.69
2023-02-22T05:54:11.466Z,72.13
2023-02-22T05:56:44.574Z,72.05
2023-02-22T05:59:16.577Z,71.85
2023-02-22T06:01:48.304Z,71.61
2023-02-22T06:04:20.559Z,72.04
2023-02-22T06:06:52.537Z,72.42
2023-02-22T06:09:24.806Z,72.47
2023-02-22T06:11:56.819Z,72.10
2023-02-22T06:14:28.678Z,71.98
2023-02-22T06:17:01.187Z,72.06
2023-02-22T06:19:32.797Z,72.26
2023-02-22T06:22:04.376Z,72.66
2023-02-22T06:24:36.011Z,72.39
2023-02-22T06:27:08.632Z,72.17
2023-02-22T06:29:40.120Z,72.27
2023-02-22T06:32:11.791Z,72.35
2023-02-22T06:34:43.990Z,71.99
2023-02-22T06:37:15.530Z,71.99
2023-02-22T06:39:47.206Z,72.05
2023-02-22T06:42:19.388Z,71.97
2023-02-22T06:44:51.826Z,72.27
2023-02-22T06:47:23.628Z,72.49
2023-02-22T06:49:58.381Z,72.38
2023-02-22T06:52:30.155Z,72.56
2023-02-22T06:55:02.004Z,72.62
2023-02-22T06:57:33.628Z,71.94
2023-02-22T07:00:07.298Z,71.53
2023-02-22T07:02:39.290Z,71.48
2023-02-22T07:05:12.048Z,71.54
2023-02-22T07:07:43.671Z,71.61
2023-02-22T07:10:24.020Z,71.32
2023-02-22T07:12:55.809Z,70.86
2023-02-22T07:15:29.580Z,71.07
2023-02-22T07:18:02.385Z,71.18
2023-02-22T07:20:34.689Z,71.37
2023-02-22T07:23:06.427Z,71.54
2023-02-22T07:25:38.313Z,71.43
2023-02-22T07:28:11.311Z,71.50
2023-02-22T07:30:42.986Z,71.49
2023-02-22T07:33:15.568Z,71.39
2023-02-22T07:35:50.364Z,71.51
2023-02-22T07:38:21.701Z,71.58
2023-02-22T07:40:53.558Z,71.47
2023-02-22T07:43:26.415Z,71.34
2023-02-22T07:45:59.875Z,70.91
2023-02-22T07:48:33.026Z,70.84
2023-02-22T07:51:05.082Z,70.76
2023-02-22T07:53:37.695Z,70.70
2023-02-22T07:56:10.576Z,70.65
2023-02-22T07:58:42.904Z,70.65
2023-02-22T08:01:15.028Z,70.35
2023-02-22T08:03:47.872Z,70.77
2023-02-22T08:06:21.274Z,70.53
2023-02-22T08:08:53.085Z,70.38
2023-02-22T08:11:26.567Z,70.19
2023-02-22T08:13:58.414Z,70.10
2023-02-22T08:16:30.139Z,70.18
2023-02-22T08:19:01.822Z,70.18
2023-02-22T08:21:33.829Z,70.09
2023-02-22T08:24:05.752Z,69.99
2023-02-22T08:26:37.406Z,69.72
2023-02-22T08:29:10.478Z,69.17
2023-02-22T08:31:42.609Z,69.22
2023-02-22T08:34:14.743Z,68.68
2023-02-22T08:36:47.278Z,68.39
2023-02-22T08:39:19.028Z,68.88
2023-02-22T08:41:50.928Z,68.77
2023-02-22T08:44:24.571Z,68.59
2023-02-22T08:46:57.155Z,68.61
2023-02-22T08:49:29.045Z,68.52
2023-02-22T08:52:00.811Z,68.38
2023-02-22T08:54:32.829Z,68.32
2023-02-22T08:57:04.422Z,68.10
2023-02-22T08:59:37.136Z,67.75
2023-02-22T09:02:18.185Z,67.79
2023-02-22T09:04:50.534Z,67.73
2023-02-22T09:07:22.198Z,67.42
2023-02-22T09:09:55.257Z,67.73
2023-02-22T09:12:26.842Z,67.73
2023-02-22T09:14:58.471Z,67.46
2023-02-22T09:17:30.693Z,67.57
2023-02-22T09:20:02.431Z,67.60
2023-02-22T09:22:34.146Z,67.47
2023-02-22T09:25:16.195Z,67.12
2023-02-22T09:27:51.485Z,67.29
2023-02-22T09:30:26.998Z,67.11
2023-02-22T09:33:02.609Z,66.85
2023-02-22T09:35:36.594Z,66.85
2023-02-22T09:38:08.588Z,66.88
2023-02-22T09:40:45.374Z,66.92
2023-02-22T09:43:33.095Z,66.89
2023-02-22T09:46:28.608Z,66.58
2023-02-22T09:49:01.626Z,66.73
2023-02-22T09:51:43.245Z,66.85
2023-02-22T09:54:23.338Z,66.80
2023-02-22T09:56:57.965Z,66.67
2023-02-22T09:59:33.200Z,66.26
2023-02-22T10:02:16.191Z,66.34
2023-02-22T10:04:54.399Z,66.18
2023-02-22T10:07:30.918Z,65.95
2023-02-22T10:10:06.805Z,66.09
2023-02-22T10:12:51.602Z,65.94
2023-02-22T10:15:53.091Z,65.63
2023-02-22T10:18:48.273Z,65.69
2023-02-22T10:21:37.499Z,65.49
2023-02-22T10:24:25.173Z,65.33
2023-02-22T10:26:59.714Z,65.47
2023-02-22T10:29:40.114Z,65.59
2023-02-22T10:32:17.108Z,65.19
2023-02-22T10:34:53.146Z,64.50
2023-02-22T10:37:30.912Z,64.63
2023-02-22T10:40:14.569Z,64.69
2023-02-22T10:42:47.653Z,64.89
2023-02-22T10:45:27.090Z,64.90
2023-02-22T10:48:01.688Z,65.12
2023-02-22T10:50:35.116Z,64.89
2023-02-22T10:53:06.936Z,64.09
2023-02-22T10:55:59.577Z,63.83
2023-02-22T10:58:31.862Z,63.51
2023-02-22T11:01:21.802Z,63.03
2023-02-22T11:04:13.274Z,62.55
2023-02-22T11:06:48.430Z,62.58
2023-02-22T11:09:22.833Z,62.48
2023-02-22T11:12:13.193Z,62.51
2023-02-22T11:14:45.387Z,62.78
2023-02-22T11:17:23.213Z,62.82
2023-02-22T11:19:55.759Z,62.75
2023-02-22T11:22:31.279Z,62.22
2023-02-22T11:25:07.819Z,61.92
2023-02-22T11:27:44.115Z,61.56
2023-02-22T11:30:27.248Z,61.02
2023-02-22T11:33:01.513Z,61.15
2023-02-22T11:35:52.901Z,60.59
2023-02-22T11:38:26.853Z,60.64
2023-02-22T11:41:17.561Z,60.31
2023-02-22T11:43:52.523Z,60.53
2023-02-22T11:46:23.638Z,59.93
2023-02-22T11:49:04.927Z,60.12
2023-02-22T11:51:55.067Z,60.31
2023-02-22T11:54:49.257Z,60.52
2023-02-22T11:57:35.284Z,60.53
2023-02-22T12:00:25.137Z,60.18
2023-02-22T12:03:28.904Z,60.45
2023-02-22T12:06:19.897Z,60.49
2023-02-22T12:09:04.944Z,60.68
2023-02-22T12:11:47.134Z,60.49
2023-02-22T12:14:29.586Z,60.65
2023-02-22T12:17:20.930Z,60.60
2023-02-22T12:19:54.575Z,60.28
2023-02-22T12:22:30.210Z,60.10
2023-02-22T12:25:10.237Z,60.27
2023-02-22T12:27:49.637Z,60.15
2023-02-22T12:30:29.161Z,59.70
2023-02-22T12:33:07.322Z,59.53
2023-02-22T12:35:46.495Z,59.72
2023-02-22T12:38:24.952Z,59.90
2023-02-22T12:41:05.108Z,60.06
2023-02-22T12:43:45.553Z,59.61
2023-02-22T12:46:22.360Z,59.61
2023-02-22T12:49:03.299Z,59.48
2023-02-22T12:51:42.854Z,59.76
2023-02-22T12:54:22.061Z,60.02
2023-02-22T12:56:59.381Z,60.00
2023-02-22T12:59:40.431Z,59.83
2023-02-22T13:02:19.847Z,59.40
2023-02-22T13:04:51.981Z,58.94
2023-02-22T13:07:37.951Z,58.85
2023-02-22T13:10:39.792Z,59.23
2023-02-22T13:13:18.545Z,59.49
2023-02-22T13:15:57.762Z,59.49
2023-02-22T13:18:38.335Z,60.14
2023-02-22T13:21:19.302Z,60.29
2023-02-22T13:24:05.158Z,60.93
2023-02-22T13:26:43.419Z,61.42
2023-02-22T13:29:19.037Z,60.95
2023-02-22T13:32:06.587Z,61.02
2023-02-22T13:34:53.663Z,61.25
2023-02-22T13:37:48.566Z,61.22
2023-02-22T13:40:41.148Z,61.31
2023-02-22T13:43:37.231Z,61.19
2023-02-22T13:46:40.114Z,60.52
2023-02-22T13:49:46.368Z,60.50
2023-02-22T13:52:21.822Z,60.97
2023-02-22T13:54:57.662Z,61.27
2023-02-22T13:57:35.836Z,61.13
2023-02-22T14:00:41.815Z,61.04
2023-02-22T14:03:30.978Z,60.79
2023-02-22T14:06:03.050Z,60.96
2023-02-22T14:08:47.828Z,60.93
2023-02-22T14:11:58.766Z,61.05
2023-02-22T14:14:30.859Z,60.87
2023-02-22T14:17:23.681Z,60.64
2023-02-22T14:20:22.004Z,60.65
2023-02-22T14:22:55.059Z,60.52
2023-02-22T14:25:43.286Z,60.19
2023-02-22T14:28:40.774Z,60.10
2023-02-22T14:31:29.513Z,60.09
2023-02-22T14:34:12.030Z,60.16
2023-02-22T14:36:53.453Z,59.67
2023-02-22T14:39:32.395Z,59.81
2023-02-22T14:42:09.204Z,59.94
2023-02-22T14:44:49.195Z,59.95
2023-02-22T14:47:29.666Z,60.01
2023-02-22T14:50:08.549Z,59.46
2023-02-22T14:52:46.782Z,59.85
2023-02-22T14:55:27.213Z,60.06
2023-02-22T14:58:08.886Z,60.11
2023-02-22T15:00:46.413Z,60.04
2023-02-22T15:03:33.435Z,59.77
2023-02-22T15:06:20.081Z,59.62
2023-02-22T15:09:08.016Z,59.71
2023-02-22T15:11:40.105Z,59.59
2023-02-22T15:14:26.343Z,59.35
2023-02-22T15:17:02.149Z,59.53
2023-02-22T15:19:39.166Z,59.34
2023-02-22T15:22:23.161Z,59.20
2023-02-22T15:25:03.146Z,59.05
2023-02-22T15:27:37.512Z,58.83
2023-02-22T15:30:18.295Z,58.71
2023-02-22T15:33:03.705Z,58.88
2023-02-22T15:35:36.981Z,59.05
2023-02-22T15:38:22.341Z,59.16
2023-02-22T15:41:05.783Z,59.26
2023-02-22T15:43:38.878Z,59.22
2023-02-22T15:46:11.878Z,59.50
2023-02-22T15:48:44.930Z,59.97
2023-02-22T15:51:19.696Z,59.95
2023-02-22T15:53:53.302Z,59.93
2023-02-22T15:56:33.056Z,59.98
2023-02-22T15:59:09.173Z,60.03
2023-02-22T16:01:43.428Z,59.71
2023-02-22T16:04:23.074Z,59.65
2023-02-22T16:07:04.102Z,59.28
2023-02-22T16:09:36.689Z,59.01
2023-02-22T16:12:28.595Z,59.14
2023-02-22T16:15:01.821Z,59.10
2023-02-22T16:18:02.288Z,59.06
2023-02-22T16:20:39.130Z,59.37
2023-02-22T16:23:29.062Z,58.99
2023-02-22T16:26:20.564Z,59.02
2023-02-22T16:28:54.697Z,59.07
2023-02-22T16:31:29.579Z,59.00
2023-02-22T16:34:03.997Z,58.85
2023-02-22T16:36:46.335Z,58.95
2023-02-22T16:39:27.661Z,58.92
2023-02-22T16:42:03.238Z,59.34
2023-02-22T16:44:39.125Z,59.21
2023-02-22T16:47:13.937Z,59.18
2023-02-22T16:49:52.997Z,59.46
2023-02-22T16:52:24.920Z,59.26
2023-02-22T16:54:56.508Z,59.19
2023-02-22T16:57:33.436Z,59.29
2023-02-22T17:00:10.167Z,59.23
2023-02-22T17:02:46.106Z,59.50
2023-02-22T17:05:20.282Z,59.47
2023-02-22T17:07:53.695Z,59.09
2023-02-22T17:10:27.135Z,58.99
2023-02-22T17:13:20.119Z,58.36
2023-02-22T17:15:55.669Z,58.60
2023-02-22T17:18:34.854Z,58.54
2023-02-22T17:21:16.739Z,58.79
2023-02-22T17:23:49.622Z,58.89
2023-02-22T17:26:27.050Z,58.92
2023-02-22T17:29:04.050Z,59.14
2023-02-22T17:31:37.201Z,59.24
2023-02-22T17:34:10.021Z,59.35
2023-02-22T17:36:42.825Z,59.63
2023-02-22T17:39:17.692Z,59.64
2023-02-22T17:41:53.386Z,59.31
2023-02-22T17:44:31.032Z,59.16
2023-02-22T17:47:05.860Z,59.32
2023-02-22T17:49:38.407Z,59.58
2023-02-22T17:52:16.480Z,59.47
2023-02-22T17:54:49.110Z,59.23
2023-02-22T17:57:28.350Z,59.50
2023-02-22T18:00:13.283Z,59.65
2023-02-22T18:02:50.835Z,59.41
2023-02-22T18:05:27.395Z,59.23
2023-02-22T18:08:07.798Z,59.11
2023-02-22T18:10:43.202Z,59.17
2023-02-22T18:13:19.496Z,58.96
2023-02-22T18:15:55.375Z,59.04
2023-02-22T18:18:32.520Z,59.05
2023-02-22T18:21:07.223Z,59.03
2023-02-22T18:23:43.044Z,58.76
2023-02-22T18:26:20.498Z,58.47
2023-02-22T18:28:55.693Z,58.57
2023-02-22T18:31:29.334Z,58.56
2023-02-22T18:34:03.238Z,58.84
2023-02-22T18:36:40.621Z,58.72
2023-02-22T18:39:16.481Z,59.13
2023-02-22T18:42:01.402Z,58.78
2023-02-22T18:44:37.556Z,58.55
2023-02-22T18:47:19.314Z,58.54
2023-02-22T18:49:54.461Z,58.99
2023-02-22T18:52:32.840Z,58.90
2023-02-22T18:55:09.649Z,58.99
2023-02-22T19:00:45.004Z,58.82
2023-02-22T19:03:23.011Z,59.04
2023-02-22T19:05:58.569Z,58.57
2023-02-22T19:08:33.300Z,58.93
2023-02-22T19:11:09.810Z,58.31
2023-02-22T19:13:54.817Z,58.34
2023-02-22T19:16:34.499Z,58.56
2023-02-22T19:19:10.310Z,58.77
2023-02-22T19:21:46.094Z,59.01
2023-02-22T19:24:21.376Z,58.83
2023-02-22T19:27:01.197Z,58.62
2023-02-22T19:29:39.576Z,58.31
2023-02-22T19:32:13.619Z,58.08
2023-02-22T19:34:50.840Z,58.49
2023-02-22T19:37:25.756Z,58.09
2023-02-22T19:40:02.067Z,57.97
2023-02-22T19:42:40.952Z,58.01
2023-02-22T19:45:22.659Z,58.14
2023-02-22T19:47:59.672Z,58.61
2023-02-22T19:50:40.624Z,58.28
2023-02-22T19:53:19.150Z,58.76
2023-02-22T19:56:00.492Z,58.56
2023-02-22T19:58:37.844Z,58.55
2023-02-22T20:01:29.010Z,59.16
2023-02-22T20:04:18.766Z,58.64
2023-02-22T20:06:59.508Z,58.35
2023-02-22T20:09:37.371Z,58.76
2023-02-22T20:12:15.158Z,58.79
2023-02-22T20:14:59.322Z,58.56
2023-02-22T20:17:34.909Z,58.12
2023-02-22T20:20:10.572Z,58.11
2023-02-22T20:22:46.683Z,58.45
2023-02-22T20:25:26.749Z,59.07
2023-02-22T20:28:02.648Z,59.16
2023-02-22T20:30:38.656Z,59.14
2023-02-22T20:33:14.571Z,59.23
2023-02-22T20:35:50.063Z,59.25
2023-02-22T20:38:26.915Z,59.17
2023-02-22T20:41:08.016Z,58.79
2023-02-22T20:43:42.612Z,58.48
2023-02-22T20:46:19.483Z,58.55
2023-02-22T20:48:59.456Z,58.28
2023-02-22T20:51:33.462Z,58.56
2023-02-22T20:54:09.465Z,58.52
2023-02-22T20:56:45.041Z,58.35
2023-02-22T20:59:25.340Z,58.51
2023-02-22T21:02:01.411Z,58.60
2023-02-22T21:04:36.339Z,58.15
2023-02-22T21:07:09.928Z,57.71
2023-02-22T21:09:44.302Z,57.40
2023-02-22T21:12:18.373Z,58.04
2023-02-22T21:14:51.375Z,58.20
2023-02-22T21:17:30.124Z,58.31
2023-02-22T21:20:13.135Z,58.44
2023-02-22T21:22:51.914Z,59.09
2023-02-22T21:25:25.515Z,59.21
2023-02-22T21:28:00.380Z,58.77
2023-02-22T21:30:38.594Z,58.82
2023-02-22T21:33:12.731Z,59.55
2023-02-22T21:35:47.886Z,59.84
2023-02-22T21:38:21.156Z,59.91
2023-02-22T21:40:59.183Z,60.07
2023-02-22T21:43:33.743Z,59.93
2023-02-22T21:46:11.185Z,59.62
2023-02-22T21:48:49.242Z,59.45
2023-02-22T21:51:23.577Z,60.01
2023-02-22T21:53:56.738Z,60.20
2023-02-22T21:56:29.142Z,60.30
2023-02-22T21:59:03.340Z,60.62
2023-02-22T22:01:36.970Z,60.56
2023-02-22T22:04:09.963Z,60.77
2023-02-22T22:06:41.693Z,61.15
2023-02-22T22:09:18.581Z,60.85
2023-02-22T22:11:52.717Z,60.82
2023-02-22T22:14:28.517Z,60.45
2023-02-22T22:17:01.803Z,60.15
2023-02-22T22:19:39.516Z,60.54
2023-02-22T22:22:13.100Z,60.86
2023-02-22T22:24:46.260Z,61.07
2023-02-22T22:27:18.518Z,61.04
2023-02-22T22:29:52.247Z,61.03
2023-02-22T22:32:24.792Z,60.72
2023-02-22T22:34:59.728Z,61.07
2023-02-22T22:37:32.180Z,61.29
2023-02-22T22:40:05.957Z,60.97
2023-02-22T22:42:38.430Z,60.90
2023-02-22T22:45:12.626Z,60.63
2023-02-22T22:47:46.327Z,61.22
2023-02-22T22:50:26.651Z,61.21
2023-02-22T22:52:58.452Z,61.30
2023-02-22T22:55:30.242Z,61.31
2023-02-22T22:58:02.548Z,61.35
2023-02-22T23:00:37.976Z,61.46
2023-02-22T23:03:18.072Z,61.45
2023-02-22T23:05:50.264Z,61.05
2023-02-22T23:08:29.535Z,61.00
2023-02-22T23:11:09.455Z,61.23
2023-02-22T23:13:41.551Z,60.76
2023-02-22T23:16:14.118Z,61.00
2023-02-22T23:18:46.630Z,61.05
2023-02-22T23:21:19.966Z,61.34
2023-02-22T23:23:53.784Z,61.38
2023-02-22T23:26:27.106Z,61.25
2023-02-22T23:29:00.921Z,61.26
2023-02-22T23:31:33.341Z,61.58
2023-02-22T23:34:11.390Z,61.74
2023-02-22T23:36:44.611Z,61.88
2023-02-22T23:39:18.147Z,61.75
2023-02-22T23:41:53.392Z,61.35
2023-02-22T23:44:27.477Z,61.09
2023-02-22T23:47:00.550Z,61.10
2023-02-22T23:49:37.428Z,61.19
2023-02-22T23:52:10.254Z,61.63
2023-02-22T23:54:44.281Z,61.98
2023-02-22T23:57:17.848Z,62.37
2023-02-22T23:59:51.678Z,62.59
